• location
  • image
mod_vvisit_countermod_vvisit_countermod_vvisit_countermod_vvisit_countermod_vvisit_countermod_vvisit_counter
mod_vvisit_counterToday285
mod_vvisit_counterYesterday500
mod_vvisit_counterThis week2311
mod_vvisit_counterLast week4065
mod_vvisit_counterThis month11657
mod_vvisit_counterLast month21291
mod_vvisit_counterAll days531734

We have: 4 guests, 3 bots online
Your IP: 54.205.209.213
 , 
Today: Jan 19, 2017
Airport

AP V2 EN

 

 

You can watch a film about services of Siauliai International Airport

Today

Thursday, 19 January 2017

Weather Forecast

Siauliai °C
   

Aviation Weather Forecast

[source: ADDS]
METAR
EYSA 191020Z 22014KT 3200 BR OVC003 M01/M01 Q1026 R14L/29//95 R14R/29//95 YLO2 NOSIG =
TAF
TAF EYSA 190800Z 1909/1918 24014KT 3000 BR OVC004 TEMPO 1909/1911 1500 FZDZ TEMPO 1911/1913 1000 DZ BECMG 1913/1915 1500 TEMPO 1915/1918 0600 DZ FG VV002 =
SR / SS: 06:37 / 14:39 UTC (EYSA 2017-01-19)

Search

Who's Online

We have 7 guests online

tic logo en